createdAt,value
2016-03-14T08:50:36.225Z,719.3
2016-03-14T08:50:49.991Z,719.41
2016-03-14T08:51:03.866Z,719.42
2016-03-14T08:51:17.821Z,719.22
2016-03-14T08:51:31.977Z,719.12
2016-03-14T08:51:45.977Z,719.23
2016-03-14T08:51:59.962Z,719.19
2016-03-14T08:52:13.871Z,719.38
2016-03-14T08:52:31.965Z,719.42
2016-03-14T08:52:46.058Z,719.16
2016-03-14T08:53:00.199Z,719.01
2016-03-14T08:53:13.608Z,719.31
2016-03-14T08:53:27.468Z,719.64
2016-03-14T08:53:41.718Z,719.21
2016-03-14T08:53:55.749Z,719.38
2016-03-14T08:54:09.720Z,719.21
2016-03-14T08:54:23.579Z,719.35
2016-03-14T08:54:37.813Z,719.32
2016-03-14T08:54:51.829Z,719.24
2016-03-14T08:55:05.860Z,719.26
2016-03-14T08:55:19.957Z,719.17
2016-03-14T08:55:34.191Z,719.4
2016-03-14T08:55:48.176Z,719.45
2016-03-14T08:56:02.270Z,719.42
2016-03-14T08:56:16.085Z,719.29
2016-03-14T08:56:30.163Z,719.17
2016-03-14T08:56:44.085Z,719.09
2016-03-14T08:56:57.976Z,718.88
2016-03-14T08:57:11.868Z,719.19
2016-03-14T08:57:25.759Z,719.24
2016-03-14T08:57:39.728Z,719.49
2016-03-14T08:57:53.712Z,719.39
2016-03-14T08:58:07.603Z,719.47
2016-03-14T08:58:21.496Z,719.45
2016-03-14T08:58:35.621Z,719.33
2016-03-14T08:58:49.512Z,719.33
2016-03-14T08:59:03.465Z,719.15
2016-03-14T08:59:17.968Z,719.22
2016-03-14T08:59:31.937Z,719.34
2016-03-14T08:59:45.937Z,719.3
2016-03-14T08:59:59.906Z,719.37
2016-03-14T09:00:14.205Z,719.18
2016-03-14T09:00:28.174Z,719.37
2016-03-14T09:00:42.096Z,719.29
2016-03-14T09:00:56.002Z,719.42
2016-03-14T09:01:09.879Z,719.13
2016-03-14T09:01:23.661Z,719.36
2016-03-14T09:01:37.645Z,719.31
2016-03-14T09:01:51.770Z,719.36
2016-03-14T09:02:08.710Z,719.33
2016-03-14T09:02:22.523Z,719.09
2016-03-14T09:02:36.804Z,719.31
2016-03-14T09:02:50.710Z,719.24
2016-03-14T09:03:05.164Z,719.42
2016-03-14T09:03:19.166Z,719.17
2016-03-14T09:03:32.978Z,719.09
2016-03-14T09:03:46.978Z,718.75
2016-03-14T09:04:00.931Z,719.2
2016-03-14T09:04:14.840Z,719.27
2016-03-14T09:04:28.684Z,719.23
2016-03-14T09:04:42.981Z,719.36
2016-03-14T09:04:57.106Z,719.19
2016-03-14T09:05:11.015Z,719.23
2016-03-14T09:05:24.843Z,719.25
2016-03-14T09:05:38.609Z,719.25
2016-03-14T09:05:52.531Z,719.11
2016-03-14T09:06:06.484Z,719.31
2016-03-14T09:06:20.643Z,719.28
2016-03-14T09:06:34.737Z,719.35
2016-03-14T09:06:49.034Z,719.41
2016-03-14T09:07:03.471Z,719.39
2016-03-14T09:07:17.364Z,719.31
2016-03-14T09:07:31.583Z,719.32
2016-03-14T09:07:45.380Z,719.07
2016-03-14T09:07:59.333Z,719.17
2016-03-14T09:08:13.258Z,719.46
2016-03-14T09:08:27.476Z,719.34
2016-03-14T09:08:41.461Z,719.25
2016-03-14T09:08:55.820Z,719.35
2016-03-14T09:09:09.713Z,719.21
2016-03-14T09:09:23.760Z,719.41
2016-03-14T09:09:37.682Z,719.44
2016-03-14T09:09:52.010Z,719.27
2016-03-14T09:10:06.510Z,719.44
2016-03-14T09:10:20.497Z,719.45
2016-03-14T09:10:34.544Z,719.18
2016-03-14T09:10:48.763Z,719.27
2016-03-14T09:11:02.888Z,719.48
2016-03-14T09:11:16.688Z,719.53
2016-03-14T09:11:30.828Z,719.4
2016-03-14T09:11:44.922Z,719.25
2016-03-14T09:11:58.906Z,719.22
2016-03-14T09:12:12.908Z,719.24
2016-03-14T09:12:26.783Z,719.36
2016-03-14T09:12:40.768Z,719.39
2016-03-14T09:12:54.705Z,719.36
2016-03-14T09:13:07.768Z,719.46
2016-03-14T09:13:21.818Z,719.42
2016-03-14T09:13:36.130Z,719.45
2016-03-14T09:13:50.396Z,719.35
2016-03-14T09:14:04.286Z,719.43
2016-03-14T09:14:18.805Z,719.33
2016-03-14T09:14:32.696Z,719.45
2016-03-14T09:14:46.680Z,719.45
2016-03-14T09:15:00.836Z,719.48
2016-03-14T09:15:15.136Z,719.11
2016-03-14T09:15:29.027Z,719.36
2016-03-14T09:15:43.042Z,719.27
2016-03-14T09:15:57.089Z,719.29
2016-03-14T09:16:10.935Z,719.26
2016-03-14T09:16:24.966Z,719.38
2016-03-14T09:16:38.982Z,719.35
2016-03-14T09:16:52.935Z,719.51
2016-03-14T09:17:07.185Z,719.32
2016-03-14T09:17:21.157Z,719.39
2016-03-14T09:17:35.032Z,719.2
2016-03-14T09:17:49.000Z,719.01
2016-03-14T09:18:03.297Z,719.36
2016-03-14T09:18:17.159Z,719.31
2016-03-14T09:18:31.049Z,719.27
2016-03-14T09:18:45.002Z,718.76
2016-03-14T09:18:58.956Z,718.94
2016-03-14T09:19:13.053Z,719.3
2016-03-14T09:19:27.413Z,719.29
2016-03-14T09:19:41.444Z,719.1
2016-03-14T09:19:55.397Z,719.38
2016-03-14T09:20:09.790Z,719.16
2016-03-14T09:20:23.915Z,719.14
2016-03-14T09:20:37.915Z,719.34
2016-03-14T09:20:51.899Z,719.45
2016-03-14T09:21:05.930Z,719.32
2016-03-14T09:21:19.949Z,719.4
2016-03-14T09:21:34.027Z,719.08
2016-03-14T09:21:47.949Z,719.24
2016-03-14T09:22:01.965Z,719.21
2016-03-14T09:22:15.920Z,719.18
2016-03-14T09:22:43.888Z,719.36
2016-03-14T09:22:57.795Z,719.4
2016-03-14T09:23:11.720Z,719.26
2016-03-14T09:23:25.688Z,719.12
2016-03-14T09:23:39.751Z,719
2016-03-14T09:23:53.923Z,719.01
2016-03-14T09:24:08.282Z,719
2016-03-14T09:24:22.503Z,719.18
2016-03-14T09:24:36.503Z,719.24
2016-03-14T09:24:50.378Z,719.08
2016-03-14T09:25:04.862Z,719.18
2016-03-14T09:25:18.960Z,719.1
2016-03-14T09:25:33.179Z,719.27
2016-03-14T09:25:47.054Z,719.23
2016-03-14T09:26:01.210Z,719.23
2016-03-14T09:26:15.134Z,718.95
2016-03-14T09:26:29.306Z,718.94
2016-03-14T09:26:43.743Z,719.06
2016-03-14T09:26:57.774Z,719.1
2016-03-14T09:27:11.887Z,719.26
2016-03-14T09:27:25.856Z,719.14
2016-03-14T09:27:39.871Z,719.22
2016-03-14T09:27:53.934Z,719.07
2016-03-14T09:28:07.840Z,719.09
2016-03-14T09:28:21.779Z,719.02
2016-03-14T09:28:35.701Z,719.32
2016-03-14T09:28:49.639Z,719.28
2016-03-14T09:29:03.889Z,719.18
2016-03-14T09:29:17.157Z,719
2016-03-14T09:29:31.314Z,718.9
2016-03-14T09:29:45.220Z,718.92
2016-03-14T09:29:59.329Z,719.08
2016-03-14T09:30:13.379Z,719.28
2016-03-14T09:30:27.254Z,719.37
2016-03-14T09:30:40.692Z,719.12
2016-03-14T09:30:54.754Z,719.29
2016-03-14T09:31:08.787Z,719.02
2016-03-14T09:31:22.756Z,719.05
2016-03-14T09:31:36.803Z,719.11
2016-03-14T09:31:50.897Z,719.26
2016-03-14T09:32:05.131Z,719.2
2016-03-14T09:32:19.448Z,719.26
2016-03-14T09:32:32.870Z,719.43
2016-03-14T09:32:47.041Z,719.3
2016-03-14T09:33:01.182Z,719.24
2016-03-14T09:33:15.184Z,719.37
2016-03-14T09:33:29.262Z,719.05
2016-03-14T09:33:43.278Z,719.1
2016-03-14T09:33:57.247Z,719.2
2016-03-14T09:34:11.328Z,719.13
2016-03-14T09:34:25.656Z,719.23
2016-03-14T09:34:40.000Z,719.47
2016-03-14T09:34:54.156Z,719.23
2016-03-14T09:35:08.453Z,719.14
2016-03-14T09:35:22.502Z,719.28
2016-03-14T09:35:36.783Z,719.25
2016-03-14T09:35:50.798Z,719.31
2016-03-14T09:36:04.767Z,719.29
2016-03-14T09:36:18.051Z,719.35
2016-03-14T09:36:32.380Z,719.15
2016-03-14T09:36:46.333Z,719.22
2016-03-14T09:37:00.286Z,719.39
2016-03-14T09:37:14.226Z,719.19
2016-03-14T09:37:28.476Z,719.41
2016-03-14T09:37:42.758Z,719.37
2016-03-14T09:37:56.742Z,719.58
2016-03-14T09:38:10.776Z,719.38
2016-03-14T09:38:24.776Z,719.25
2016-03-14T09:38:38.745Z,719.4
2016-03-14T09:38:52.870Z,719.44
2016-03-14T09:39:07.104Z,719.09
2016-03-14T09:39:21.169Z,719.28
2016-03-14T09:39:35.122Z,719.35
2016-03-14T09:39:49.231Z,719.17
2016-03-14T09:40:03.559Z,719.42
2016-03-14T09:40:17.656Z,719.34
2016-03-14T09:40:31.656Z,719.48
2016-03-14T09:40:45.422Z,719.37
2016-03-14T09:40:59.437Z,719.31
2016-03-14T09:41:13.769Z,719.27
2016-03-14T09:41:27.909Z,719.52
2016-03-14T09:41:41.737Z,719.42
2016-03-14T09:41:55.784Z,719.54
2016-03-14T09:42:09.787Z,719.35
2016-03-14T09:42:23.740Z,719.31
2016-03-14T09:42:38.240Z,719.24
2016-03-14T09:42:52.272Z,719.32
2016-03-14T09:43:06.600Z,719.1
2016-03-14T09:43:20.727Z,719.26
2016-03-14T09:43:34.742Z,719.29
2016-03-14T09:43:48.524Z,719.45
2016-03-14T09:44:02.539Z,719.25
2016-03-14T09:44:15.761Z,719.42
2016-03-14T09:44:29.698Z,719.04
2016-03-14T09:44:43.761Z,719.28
2016-03-14T09:44:57.652Z,719.14
2016-03-14T09:45:11.280Z,719.34
2016-03-14T09:45:25.108Z,719.19
2016-03-14T09:45:39.405Z,719.31
2016-03-14T09:45:53.639Z,719.27
2016-03-14T09:46:07.639Z,719.47
2016-03-14T09:46:35.766Z,719.25
2016-03-14T09:46:49.797Z,719.43
2016-03-14T09:47:03.922Z,719.5
2016-03-14T09:47:17.863Z,719.43
2016-03-14T09:47:31.785Z,719.47
2016-03-14T09:47:46.113Z,719.35
2016-03-14T09:48:00.691Z,719.39
2016-03-14T09:48:14.896Z,719.19
2016-03-14T09:48:28.880Z,719.18
2016-03-14T09:48:43.208Z,719.38
2016-03-14T09:48:57.177Z,719.39
2016-03-14T09:49:11.243Z,719.24
2016-03-14T09:49:25.055Z,719.47
2016-03-14T09:49:39.118Z,719.16
2016-03-14T09:49:53.430Z,719.45
2016-03-14T09:50:07.586Z,719.38
2016-03-14T09:50:21.855Z,719.21
2016-03-14T09:50:35.980Z,719.06
2016-03-14T09:50:49.996Z,719.46
2016-03-14T09:51:03.996Z,719.48
2016-03-14T09:51:18.045Z,719.28
2016-03-14T09:51:32.029Z,719.29
2016-03-14T09:51:46.591Z,719.47
2016-03-14T09:52:00.857Z,719.27
2016-03-14T09:52:14.939Z,719.57
2016-03-14T09:52:28.955Z,719.6
2016-03-14T09:52:43.002Z,719.28
2016-03-14T09:52:57.049Z,719.51
2016-03-14T09:53:11.051Z,719.43
2016-03-14T09:53:25.410Z,719.39
2016-03-14T09:53:39.363Z,719.61
2016-03-14T09:53:53.410Z,719.6
2016-03-14T09:54:07.551Z,719.18
2016-03-14T09:54:21.788Z,719.1
2016-03-14T09:54:35.866Z,719.38
2016-03-14T09:54:49.850Z,719.26
2016-03-14T09:55:04.725Z,719.34
2016-03-14T09:55:19.399Z,719.15
2016-03-14T09:55:33.587Z,719.33
2016-03-14T09:55:47.618Z,719.44
2016-03-14T09:56:01.665Z,719.64
2016-03-14T09:56:15.715Z,719.86
2016-03-14T09:56:29.887Z,719.58
2016-03-14T09:56:44.012Z,719.5
2016-03-14T09:56:58.027Z,719.55
2016-03-14T09:57:12.154Z,719.71
2016-03-14T09:57:26.217Z,719.6
2016-03-14T09:57:54.436Z,719.67
2016-03-14T09:58:08.576Z,719.6
2016-03-14T09:58:22.720Z,719.46
2016-03-14T09:58:36.626Z,719.69
2016-03-14T09:58:50.626Z,719.63
2016-03-14T09:59:04.642Z,719.66
2016-03-14T09:59:18.645Z,719.9
2016-03-14T09:59:32.738Z,719.57
2016-03-14T09:59:46.848Z,719.69
2016-03-14T10:00:00.942Z,719.77
2016-03-14T10:00:15.148Z,719.84
2016-03-14T10:00:29.460Z,719.67
2016-03-14T10:00:43.726Z,719.73
2016-03-14T10:00:58.054Z,719.92
2016-03-14T10:01:12.510Z,719.76
2016-03-14T10:01:26.510Z,719.85
2016-03-14T10:01:40.713Z,719.7
2016-03-14T10:01:54.244Z,719.21
2016-03-14T10:02:08.291Z,719.61
2016-03-14T10:02:21.575Z,719.61
2016-03-14T10:02:35.653Z,719.88
2016-03-14T10:02:49.778Z,719.93
2016-03-14T10:03:04.028Z,719.91
2016-03-14T10:03:17.968Z,719.64
2016-03-14T10:03:31.828Z,719.58
2016-03-14T10:03:45.796Z,719.4
2016-03-14T10:03:59.828Z,719.7
2016-03-14T10:04:28.127Z,719.85
2016-03-14T10:04:42.346Z,719.6
2016-03-14T10:04:56.456Z,719.92
2016-03-14T10:05:10.581Z,719.93
2016-03-14T10:05:24.973Z,720.42
2016-03-14T10:05:38.879Z,720.51
2016-03-14T10:05:52.786Z,720.63
2016-03-14T10:06:06.598Z,720.99
2016-03-14T10:06:20.419Z,721.76
2016-03-14T10:06:34.606Z,722.7
2016-03-14T10:06:49.262Z,723.7
2016-03-14T10:07:02.481Z,725.27
2016-03-14T10:07:16.675Z,725.95
2016-03-14T10:07:30.707Z,726.36
2016-03-14T10:07:44.660Z,726.61
2016-03-14T10:07:58.675Z,726.43
2016-03-14T10:08:12.804Z,725.85
2016-03-14T10:08:26.773Z,724.28
2016-03-14T10:08:41.054Z,723.37
2016-03-14T10:08:55.586Z,722.81
2016-03-14T10:09:09.679Z,722.78
2016-03-14T10:09:23.681Z,722.13
2016-03-14T10:09:37.619Z,721.89
2016-03-14T10:09:51.681Z,721.5
2016-03-14T10:10:05.900Z,721.54
2016-03-14T10:10:19.919Z,721.3
2016-03-14T10:10:36.763Z,721.06
2016-03-14T10:10:51.122Z,721.14
2016-03-14T10:11:19.202Z,720.83
2016-03-14T10:11:33.749Z,720.93
2016-03-14T10:11:47.765Z,720.73
2016-03-14T10:12:01.968Z,720.64
2016-03-14T10:12:15.893Z,720.51
2016-03-14T10:12:29.877Z,720.48
2016-03-14T10:12:43.877Z,720.38
2016-03-14T10:12:57.643Z,720.4
2016-03-14T10:13:11.549Z,720.56
2016-03-14T10:13:25.536Z,720.61
2016-03-14T10:13:39.833Z,720.35
2016-03-14T10:13:54.052Z,720.59
2016-03-14T10:14:07.958Z,720.57
2016-03-14T10:14:22.227Z,720.52
2016-03-14T10:14:36.180Z,720.35
2016-03-14T10:14:50.399Z,720.13
2016-03-14T10:15:04.274Z,720.14
2016-03-14T10:15:17.276Z,720.25
2016-03-14T10:15:31.510Z,720.28
2016-03-14T10:15:45.510Z,720.27
2016-03-14T10:15:59.432Z,720.24
2016-03-14T10:16:13.810Z,720.2
2016-03-14T10:16:27.810Z,720.27
2016-03-14T10:16:41.841Z,720.19
2016-03-14T10:16:55.982Z,720.04
2016-03-14T10:17:09.904Z,720.05
2016-03-14T10:17:23.062Z,720.2
2016-03-14T10:17:37.046Z,720.14
2016-03-14T10:17:51.281Z,720.2
2016-03-14T10:18:05.640Z,720.03
2016-03-14T10:18:19.580Z,719.79
2016-03-14T10:18:33.627Z,719.9
2016-03-14T10:18:47.534Z,719.53
2016-03-14T10:19:01.893Z,718.95
2016-03-14T10:19:16.099Z,719.53
2016-03-14T10:19:30.052Z,720.15
2016-03-14T10:19:44.177Z,719.73
2016-03-14T10:19:58.130Z,719.65
2016-03-14T10:20:12.148Z,719.94
2016-03-14T10:20:26.289Z,719.69
2016-03-14T10:20:40.414Z,719.65
2016-03-14T10:20:55.054Z,719.97
2016-03-14T10:21:09.039Z,720.08
2016-03-14T10:21:23.027Z,720.13
2016-03-14T10:21:37.121Z,719.31
2016-03-14T10:21:51.605Z,719.52
2016-03-14T10:22:05.558Z,719.58
2016-03-14T10:22:19.435Z,719.85
2016-03-14T10:22:33.341Z,719.95
2016-03-14T10:22:47.826Z,719.99
2016-03-14T10:23:01.888Z,719.91
2016-03-14T10:23:15.829Z,719.97
2016-03-14T10:23:29.751Z,719.87
2016-03-14T10:23:43.938Z,719.78
2016-03-14T10:23:57.860Z,719.76
2016-03-14T10:24:12.128Z,719.29
2016-03-14T10:24:26.050Z,719.62
2016-03-14T10:24:40.034Z,719.74
2016-03-14T10:24:54.034Z,719.85
2016-03-14T10:25:08.565Z,719.63
2016-03-14T10:25:22.912Z,719.65
2016-03-14T10:25:37.662Z,719.73
2016-03-14T10:25:51.771Z,719.83
2016-03-14T10:26:06.053Z,719.74
2016-03-14T10:26:20.071Z,719.86
2016-03-14T10:26:34.134Z,719.55
2016-03-14T10:26:48.446Z,719.79
2016-03-14T10:27:02.446Z,719.68
2016-03-14T10:27:16.495Z,719.85
2016-03-14T10:27:30.495Z,719.6
2016-03-14T10:27:44.870Z,719.59
2016-03-14T10:27:59.026Z,719.53
2016-03-14T10:28:12.999Z,719.44
2016-03-14T10:28:27.046Z,719.66
2016-03-14T10:28:41.280Z,719.84
2016-03-14T10:28:55.937Z,719.7
2016-03-14T10:29:09.983Z,719.76
2016-03-14T10:29:23.954Z,719.77
2016-03-14T10:29:38.220Z,719.82
2016-03-14T10:29:51.376Z,719.64
2016-03-14T10:30:05.267Z,719.7
2016-03-14T10:30:19.567Z,719.8
2016-03-14T10:30:33.535Z,719.55
2016-03-14T10:30:47.613Z,719.42
2016-03-14T10:31:01.848Z,719.56
2016-03-14T10:31:15.865Z,719.42
2016-03-14T10:31:29.975Z,719.62
2016-03-14T10:31:44.225Z,719.68
2016-03-14T10:31:58.444Z,719.51
2016-03-14T10:32:12.462Z,719.3
2016-03-14T10:32:26.431Z,719.73
2016-03-14T10:32:40.837Z,719.65
2016-03-14T10:32:54.822Z,719.6
2016-03-14T10:33:08.728Z,719.83
2016-03-14T10:33:22.981Z,719.75
2016-03-14T10:33:36.996Z,719.63
2016-03-14T10:33:51.012Z,719.69
2016-03-14T10:34:05.012Z,719.64
2016-03-14T10:34:19.296Z,719.54
2016-03-14T10:34:33.531Z,719.55
2016-03-14T10:34:48.062Z,719.39
2016-03-14T10:35:02.156Z,719.25
2016-03-14T10:35:16.189Z,718.86
2016-03-14T10:35:30.205Z,719.69
2016-03-14T10:35:44.173Z,719.75
2016-03-14T10:35:58.205Z,719.52
2016-03-14T10:36:12.269Z,719.79
2016-03-14T10:36:26.082Z,719.67
2016-03-14T10:36:40.066Z,719.6
2016-03-14T10:36:54.222Z,719.56
2016-03-14T10:37:08.113Z,719.42
2016-03-14T10:37:22.475Z,719.53
2016-03-14T10:37:36.272Z,719.53
2016-03-14T10:37:50.225Z,719.69
2016-03-14T10:38:04.100Z,719.59
2016-03-14T10:38:17.994Z,719.77
2016-03-14T10:38:31.931Z,719.63
2016-03-14T10:38:45.978Z,719.19
2016-03-14T10:38:59.869Z,719.58
2016-03-14T10:39:28.200Z,719.06
2016-03-14T10:39:42.184Z,719.43
2016-03-14T10:39:56.075Z,719.29
2016-03-14T10:40:10.028Z,719.59
2016-03-14T10:40:24.030Z,719.8
2016-03-14T10:40:38.108Z,719.49
2016-03-14T10:40:55.218Z,719.38
2016-03-14T10:41:09.077Z,719.65
2016-03-14T10:41:23.111Z,719.6
2016-03-14T10:41:37.002Z,719.86
2016-03-14T10:41:50.986Z,719.79
2016-03-14T10:42:04.955Z,719.83
2016-03-14T10:42:19.255Z,719.88
2016-03-14T10:42:33.520Z,719.79
2016-03-14T10:42:47.583Z,719.77
2016-03-14T10:43:01.567Z,719.81
2016-03-14T10:43:15.836Z,719.71
2016-03-14T10:43:29.820Z,719.74
2016-03-14T10:43:43.867Z,719.74
2016-03-14T10:43:57.930Z,719.88
2016-03-14T10:44:12.023Z,719.67
2016-03-14T10:44:26.150Z,719.55
2016-03-14T10:44:40.166Z,719.81
2016-03-14T10:44:54.432Z,719.55
2016-03-14T10:45:08.416Z,719.58
2016-03-14T10:45:22.653Z,719.77
2016-03-14T10:45:36.528Z,719.51
2016-03-14T10:45:50.497Z,719.9
2016-03-14T10:46:03.685Z,719.72
2016-03-14T10:46:17.563Z,719.85
2016-03-14T10:46:31.469Z,719.87
2016-03-14T10:46:46.125Z,719.72
2016-03-14T10:47:00.172Z,719.8
2016-03-14T10:47:14.299Z,719.84
2016-03-14T10:47:28.330Z,719.72
2016-03-14T10:47:42.315Z,719.83
2016-03-14T10:47:56.330Z,719.72
2016-03-14T10:48:10.299Z,719.36
2016-03-14T10:48:24.349Z,719.65
2016-03-14T10:48:38.521Z,719.69
2016-03-14T10:48:55.474Z,719.74
2016-03-14T10:49:09.521Z,719.78
2016-03-14T10:49:23.461Z,719.87
2016-03-14T10:49:37.446Z,719.77
2016-03-14T10:49:51.539Z,719.67
2016-03-14T10:50:05.555Z,719.86
2016-03-14T10:50:19.682Z,719.66
2016-03-14T10:50:47.963Z,719.65
2016-03-14T10:51:01.901Z,719.81
2016-03-14T10:51:15.935Z,719.6
2016-03-14T10:51:29.810Z,719.47
2016-03-14T10:51:44.029Z,719.73
2016-03-14T10:51:57.216Z,719.61
2016-03-14T10:52:11.169Z,719.82
2016-03-14T10:52:25.671Z,719.75
2016-03-14T10:52:39.953Z,719.8
2016-03-14T10:52:53.828Z,719.82
2016-03-14T10:53:07.796Z,719.92
2016-03-14T10:53:22.034Z,719.85
2016-03-14T10:53:35.924Z,719.56
2016-03-14T10:53:49.924Z,719.66
2016-03-14T10:54:04.096Z,719.47
2016-03-14T10:54:17.724Z,719.8
2016-03-14T10:54:31.615Z,719.63
2016-03-14T10:54:45.740Z,719.77
2016-03-14T10:54:59.771Z,719.7
2016-03-14T10:55:13.664Z,719.8
2016-03-14T10:55:27.804Z,719.65
2016-03-14T10:55:41.976Z,719.77
2016-03-14T10:55:55.976Z,719.61
2016-03-14T10:56:09.945Z,719.63
2016-03-14T10:56:24.168Z,719.63
2016-03-14T10:56:38.277Z,719.11
2016-03-14T10:56:52.355Z,719.57
2016-03-14T10:57:06.183Z,719.72
2016-03-14T10:57:20.060Z,719.66
2016-03-14T10:57:34.092Z,719.45
2016-03-14T10:57:48.248Z,719.56
2016-03-14T10:58:02.295Z,719.49
2016-03-14T10:58:16.829Z,719.48
2016-03-14T10:58:30.798Z,719.68
2016-03-14T10:58:44.782Z,719.52
2016-03-14T10:58:58.829Z,719.59
2016-03-14T10:59:12.831Z,719.67
2016-03-14T10:59:27.144Z,719.75
2016-03-14T10:59:41.409Z,719.51
2016-03-14T10:59:55.206Z,719.62
2016-03-14T11:00:09.565Z,719.74
2016-03-14T11:00:23.834Z,719.64
2016-03-14T11:00:37.834Z,719.7
2016-03-14T11:00:52.085Z,719.67
2016-03-14T11:01:06.069Z,719.7
2016-03-14T11:01:20.322Z,719.61
2016-03-14T11:01:34.322Z,719.54
2016-03-14T11:01:48.401Z,719.63
2016-03-14T11:02:02.307Z,719.41
2016-03-14T11:02:16.434Z,719.66
2016-03-14T11:02:30.762Z,719.65
2016-03-14T11:02:44.903Z,719.59
2016-03-14T11:02:58.824Z,719.74
2016-03-14T11:03:12.968Z,719.81
2016-03-14T11:03:27.062Z,719.76
2016-03-14T11:03:41.015Z,719.74
2016-03-14T11:03:54.827Z,719.61
2016-03-14T11:04:08.781Z,719.65
2016-03-14T11:04:22.955Z,719.74
2016-03-14T11:04:36.752Z,719.75
2016-03-14T11:04:50.830Z,719.66
2016-03-14T11:05:04.799Z,719.63
2016-03-14T11:05:18.724Z,719.65
2016-03-14T11:05:32.708Z,719.72
2016-03-14T11:05:46.865Z,719.41
2016-03-14T11:06:00.724Z,719.55
2016-03-14T11:06:14.835Z,719.51
2016-03-14T11:06:29.023Z,719.7
2016-03-14T11:06:43.148Z,719.76
2016-03-14T11:06:57.242Z,719.64
2016-03-14T11:07:11.445Z,719.49
2016-03-14T11:07:25.432Z,719.54
2016-03-14T11:07:39.370Z,719.41
2016-03-14T11:07:53.401Z,719.45
2016-03-14T11:08:07.495Z,719.49
2016-03-14T11:08:21.654Z,719.8
2016-03-14T11:08:35.732Z,719.36
2016-03-14T11:08:49.732Z,719.4
2016-03-14T11:09:03.701Z,719.53
2016-03-14T11:09:17.703Z,719.56
2016-03-14T11:09:31.843Z,719.73
2016-03-14T11:09:46.062Z,719.75
2016-03-14T11:10:00.093Z,719.83
2016-03-14T11:10:14.284Z,719.78
2016-03-14T11:10:28.456Z,719.71
2016-03-14T11:10:41.987Z,719.55
2016-03-14T11:10:56.112Z,719.44
2016-03-14T11:11:10.143Z,719.69
2016-03-14T11:11:24.145Z,719.52
2016-03-14T11:11:38.598Z,719.75
2016-03-14T11:11:52.708Z,719.67
2016-03-14T11:12:06.723Z,719.76
2016-03-14T11:12:21.086Z,719.65
2016-03-14T11:12:35.039Z,719.6
2016-03-14T11:12:49.336Z,719.4
2016-03-14T11:13:03.789Z,719.76
2016-03-14T11:13:17.979Z,719.79
2016-03-14T11:13:32.011Z,719.8
2016-03-14T11:13:45.901Z,719.63
2016-03-14T11:13:59.870Z,719.86
2016-03-14T11:14:13.795Z,719.79
2016-03-14T11:14:28.092Z,719.81
2016-03-14T11:14:42.451Z,719.67
2016-03-14T11:14:56.279Z,719.71
2016-03-14T11:15:10.639Z,719.64
2016-03-14T11:15:24.751Z,719.64
2016-03-14T11:15:38.735Z,719.82
2016-03-14T11:15:53.032Z,719.76
2016-03-14T11:16:07.032Z,719.63
2016-03-14T11:16:21.066Z,719.82
2016-03-14T11:16:35.159Z,719.82
2016-03-14T11:16:49.128Z,719.94
2016-03-14T11:17:03.191Z,719.76
2016-03-14T11:17:17.272Z,719.44
2016-03-14T11:17:31.319Z,719.5
2016-03-14T11:17:59.365Z,719.19
2016-03-14T11:18:13.430Z,719.6
2016-03-14T11:18:27.867Z,719.65
2016-03-14T11:18:41.867Z,719.52
2016-03-14T11:18:55.930Z,719.73
2016-03-14T11:19:08.399Z,719.85
2016-03-14T11:19:22.683Z,719.6
2016-03-14T11:19:36.902Z,719.79
2016-03-14T11:19:51.199Z,719.73
2016-03-14T11:20:05.245Z,719.85
2016-03-14T11:20:19.233Z,719.98
2016-03-14T11:20:33.202Z,719.79
2016-03-14T11:20:47.170Z,719.9
2016-03-14T11:21:01.217Z,719.89
2016-03-14T11:21:15.220Z,719.8
2016-03-14T11:21:29.095Z,719.76
2016-03-14T11:21:43.083Z,719.74
2016-03-14T11:21:56.958Z,719.7
2016-03-14T11:22:10.911Z,719.74
2016-03-14T11:22:25.022Z,719.71
2016-03-14T11:22:38.944Z,719.41
2016-03-14T11:22:52.350Z,719.42
2016-03-14T11:23:06.241Z,719.62
2016-03-14T11:23:34.493Z,719.57
2016-03-14T11:23:47.727Z,719.69
2016-03-14T11:24:01.930Z,719.64
2016-03-14T11:24:15.074Z,719.79
2016-03-14T11:24:28.996Z,719.87
2016-03-14T11:24:42.965Z,719.88
2016-03-14T11:24:57.074Z,719.69
2016-03-14T11:25:11.277Z,719.85
2016-03-14T11:25:25.249Z,719.75
2016-03-14T11:25:39.452Z,719.77
2016-03-14T11:25:52.874Z,719.69
2016-03-14T11:26:06.827Z,719.83
2016-03-14T11:26:20.908Z,719.52
2016-03-14T11:26:34.799Z,719.98
2016-03-14T11:26:49.017Z,719.88
2016-03-14T11:27:03.361Z,719.99
2016-03-14T11:27:17.285Z,719.92
2016-03-14T11:27:31.457Z,719.97
2016-03-14T11:27:46.082Z,720.09
2016-03-14T11:28:00.426Z,720.2
2016-03-14T11:28:14.585Z,720.28
2016-03-14T11:28:28.554Z,720.3
2016-03-14T11:28:42.522Z,720.23
2016-03-14T11:28:56.491Z,720.51
2016-03-14T11:29:10.616Z,720.53
2016-03-14T11:29:24.760Z,720.68
2016-03-14T11:29:38.713Z,720.77
2016-03-14T11:29:52.494Z,720.77
2016-03-14T11:30:06.760Z,720.77
2016-03-14T11:30:23.699Z,720.82
2016-03-14T11:30:37.699Z,720.89
2016-03-14T11:30:51.840Z,721.03
2016-03-14T11:31:05.106Z,721.04
2016-03-14T11:31:33.328Z,720.94
2016-03-14T11:31:47.828Z,720.75
2016-03-14T11:32:01.828Z,720.73
2016-03-14T11:32:15.987Z,720.82
2016-03-14T11:32:33.112Z,720.76
2016-03-14T11:32:47.112Z,720.67
2016-03-14T11:33:00.846Z,720.8
2016-03-14T11:33:15.880Z,720.72
2016-03-14T11:33:30.177Z,720.57
2016-03-14T11:33:44.161Z,720.49
2016-03-14T11:33:58.083Z,720.53
2016-03-14T11:34:11.865Z,720.46
2016-03-14T11:34:26.289Z,720.43
2016-03-14T11:34:40.789Z,720.67
2016-03-14T11:34:54.664Z,720.75
2016-03-14T11:35:40.635Z,720.6
2016-03-14T11:35:54.604Z,720.67
2016-03-14T11:36:09.104Z,720.62
2016-03-14T11:36:23.107Z,720.69
2016-03-14T11:36:37.279Z,720.57
2016-03-14T11:36:51.076Z,720.46
2016-03-14T11:37:05.076Z,720.43
2016-03-14T11:37:19.296Z,720.61
2016-03-14T11:37:33.750Z,720.69
2016-03-14T11:37:47.687Z,720.64
2016-03-14T11:38:01.718Z,720.56
2016-03-14T11:38:15.721Z,720.52
2016-03-14T11:38:30.018Z,720.7
2016-03-14T11:38:43.924Z,720.54
2016-03-14T11:38:57.924Z,720.59
2016-03-14T11:39:12.190Z,720.6
2016-03-14T11:39:26.302Z,720.47
2016-03-14T11:39:40.287Z,720.55
2016-03-14T11:39:54.459Z,720.73
2016-03-14T11:40:21.773Z,720.87
2016-03-14T11:40:35.648Z,720.75
2016-03-14T11:40:49.539Z,720.77
2016-03-14T11:41:03.508Z,720.71
2016-03-14T11:41:17.808Z,720.68
2016-03-14T11:41:31.621Z,720.88
2016-03-14T11:41:45.715Z,720.56
2016-03-14T11:41:59.683Z,720.72
2016-03-14T11:42:13.764Z,720.56
2016-03-14T11:42:27.717Z,720.67
2016-03-14T11:42:41.842Z,720.56
2016-03-14T11:42:55.779Z,720.83
2016-03-14T11:43:09.967Z,720.81
2016-03-14T11:43:24.094Z,720.81
2016-03-14T11:43:38.109Z,720.78
2016-03-14T11:43:52.000Z,720.76
2016-03-14T11:44:06.234Z,720.61
2016-03-14T11:44:20.300Z,720.64
2016-03-14T11:44:34.206Z,720.8
2016-03-14T11:44:48.190Z,720.79
2016-03-14T11:45:02.784Z,720.85
2016-03-14T11:45:16.865Z,720.73
2016-03-14T11:45:31.068Z,720.71
2016-03-14T11:45:44.975Z,720.54
2016-03-14T11:45:58.959Z,720.75
2016-03-14T11:46:12.865Z,720.79
2016-03-14T11:46:27.040Z,720.55
2016-03-14T11:46:40.306Z,720.7
2016-03-14T11:46:55.087Z,720.59
2016-03-14T11:47:09.071Z,720.74
2016-03-14T11:47:23.355Z,720.85
2016-03-14T11:47:37.527Z,720.89
2016-03-14T11:47:51.495Z,720.86
2016-03-14T11:48:05.355Z,720.86
2016-03-14T11:48:19.873Z,720.86
2016-03-14T11:48:34.123Z,720.93
2016-03-14T11:48:48.170Z,720.94
2016-03-14T11:49:02.076Z,720.93
2016-03-14T11:49:16.283Z,720.8
2016-03-14T11:49:29.861Z,720.82
2016-03-14T11:49:43.876Z,720.85
2016-03-14T11:49:58.189Z,720.84